sensor_id;sensor_type;location;lat;lon;timestamp;P1;P2;P0
69349;PMS5003;64554;43.452;4.934;2024-02-15T00:01:04;43.60;36.00;23.60
69349;PMS5003;64554;43.452;4.934;2024-02-15T00:03:31;46.00;38.40;25.00
69349;PMS5003;64554;43.452;4.934;2024-02-15T00:06:01;44.20;38.00;24.20
69349;PMS5003;64554;43.452;4.934;2024-02-15T00:08:29;44.00;36.00;23.00
69349;PMS5003;64554;43.452;4.934;2024-02-15T00:10:55;43.00;36.00;23.50
69349;PMS5003;64554;43.452;4.934;2024-02-15T00:13:22;46.25;38.75;25.50
69349;PMS5003;64554;43.452;4.934;2024-02-15T00:15:49;40.60;35.00;24.00
69349;PMS5003;64554;43.452;4.934;2024-02-15T00:18:16;44.50;36.25;24.00
69349;PMS5003;64554;43.452;4.934;2024-02-15T00:20:43;44.00;36.00;23.00
69349;PMS5003;64554;43.452;4.934;2024-02-15T00:23:10;44.50;35.00;24.25
69349;PMS5003;64554;43.452;4.934;2024-02-15T00:25:37;37.60;32.80;22.60
69349;PMS5003;64554;43.452;4.934;2024-02-15T00:28:03;42.50;36.75;23.25
69349;PMS5003;64554;43.452;4.934;2024-02-15T00:30:30;42.00;35.75;24.00
69349;PMS5003;64554;43.452;4.934;2024-02-15T00:32:57;42.00;35.50;24.00
69349;PMS5003;64554;43.452;4.934;2024-02-15T00:35:24;39.60;33.00;23.00
69349;PMS5003;64554;43.452;4.934;2024-02-15T00:37:54;34.00;32.00;21.00
69349;PMS5003;64554;43.452;4.934;2024-02-15T00:40:20;38.50;33.50;23.00
69349;PMS5003;64554;43.452;4.934;2024-02-15T00:42:47;46.25;37.75;23.75
69349;PMS5003;64554;43.452;4.934;2024-02-15T00:45:13;43.20;36.40;24.40
69349;PMS5003;64554;43.452;4.934;2024-02-15T00:47:40;40.00;35.00;23.80
69349;PMS5003;64554;43.452;4.934;2024-02-15T00:50:08;43.40;36.60;24.60
69349;PMS5003;64554;43.452;4.934;2024-02-15T00:52:35;44.00;38.50;24.50
69349;PMS5003;64554;43.452;4.934;2024-02-15T00:55:02;43.40;36.20;23.60
69349;PMS5003;64554;43.452;4.934;2024-02-15T00:57:29;41.00;36.00;22.75
69349;PMS5003;64554;43.452;4.934;2024-02-15T00:59:55;41.50;34.50;22.50
69349;PMS5003;64554;43.452;4.934;2024-02-15T01:02:22;40.80;34.60;23.00
69349;PMS5003;64554;43.452;4.934;2024-02-15T01:04:50;42.00;35.25;23.25
69349;PMS5003;64554;43.452;4.934;2024-02-15T01:07:17;47.40;39.00;24.00
69349;PMS5003;64554;43.452;4.934;2024-02-15T01:09:43;43.50;36.00;24.25
69349;PMS5003;64554;43.452;4.934;2024-02-15T01:12:11;43.00;36.50;23.50
69349;PMS5003;64554;43.452;4.934;2024-02-15T01:14:38;37.00;34.00;24.00
69349;PMS5003;64554;43.452;4.934;2024-02-15T01:17:04;47.75;39.50;24.00
69349;PMS5003;64554;43.452;4.934;2024-02-15T01:19:31;37.50;34.50;24.00
69349;PMS5003;64554;43.452;4.934;2024-02-15T01:21:57;37.75;32.75;22.00
69349;PMS5003;64554;43.452;4.934;2024-02-15T01:24:26;38.00;33.00;22.25
69349;PMS5003;64554;43.452;4.934;2024-02-15T01:26:52;36.00;33.00;21.80
69349;PMS5003;64554;43.452;4.934;2024-02-15T01:29:19;46.25;39.25;25.50
69349;PMS5003;64554;43.452;4.934;2024-02-15T01:31:46;42.50;36.00;25.00
69349;PMS5003;64554;43.452;4.934;2024-02-15T01:34:13;41.00;35.20;23.60
69349;PMS5003;64554;43.452;4.934;2024-02-15T01:36:39;45.00;38.25;23.25
69349;PMS5003;64554;43.452;4.934;2024-02-15T01:39:06;41.40;36.00;24.00
69349;PMS5003;64554;43.452;4.934;2024-02-15T01:41:33;33.80;31.60;22.60
69349;PMS5003;64554;43.452;4.934;2024-02-15T01:44:00;38.50;34.25;22.00
69349;PMS5003;64554;43.452;4.934;2024-02-15T01:46:27;31.00;29.00;19.40
69349;PMS5003;64554;43.452;4.934;2024-02-15T01:48:56;40.75;36.25;23.00
69349;PMS5003;64554;43.452;4.934;2024-02-15T01:51:23;41.50;33.75;22.00
69349;PMS5003;64554;43.452;4.934;2024-02-15T01:53:49;34.00;32.00;21.40
69349;PMS5003;64554;43.452;4.934;2024-02-15T01:56:16;37.25;32.25;23.00
69349;PMS5003;64554;43.452;4.934;2024-02-15T01:58:43;38.00;33.00;22.00
69349;PMS5003;64554;43.452;4.934;2024-02-15T02:01:12;37.25;31.50;22.50
69349;PMS5003;64554;43.452;4.934;2024-02-15T02:03:39;40.75;34.25;22.75
69349;PMS5003;64554;43.452;4.934;2024-02-15T02:06:05;38.40;33.80;22.00
69349;PMS5003;64554;43.452;4.934;2024-02-15T02:08:33;36.50;32.50;21.25
69349;PMS5003;64554;43.452;4.934;2024-02-15T02:10:59;34.80;32.40;22.00
69349;PMS5003;64554;43.452;4.934;2024-02-15T02:13:28;40.75;34.25;22.50
69349;PMS5003;64554;43.452;4.934;2024-02-15T02:15:56;36.60;32.80;21.40
69349;PMS5003;64554;43.452;4.934;2024-02-15T02:18:23;36.75;33.00;22.00
69349;PMS5003;64554;43.452;4.934;2024-02-15T02:20:50;32.25;30.25;21.75
69349;PMS5003;64554;43.452;4.934;2024-02-15T02:23:17;39.75;32.50;22.00
69349;PMS5003;64554;43.452;4.934;2024-02-15T02:25:49;33.60;30.80;21.00
69349;PMS5003;64554;43.452;4.934;2024-02-15T02:28:15;37.40;33.00;21.40
69349;PMS5003;64554;43.452;4.934;2024-02-15T02:30:43;33.80;32.00;22.00
69349;PMS5003;64554;43.452;4.934;2024-02-15T02:33:12;34.25;32.00;20.75
69349;PMS5003;64554;43.452;4.934;2024-02-15T02:35:45;41.60;35.40;22.00
69349;PMS5003;64554;43.452;4.934;2024-02-15T02:38:12;35.50;32.75;20.00
69349;PMS5003;64554;43.452;4.934;2024-02-15T02:40:39;34.00;32.00;22.00
69349;PMS5003;64554;43.452;4.934;2024-02-15T02:43:05;27.60;26.60;19.20
69349;PMS5003;64554;43.452;4.934;2024-02-15T02:45:32;39.00;33.00;22.00
69349;PMS5003;64554;43.452;4.934;2024-02-15T02:47:58;40.00;35.00;22.50
69349;PMS5003;64554;43.452;4.934;2024-02-15T02:50:25;41.80;36.40;23.80
69349;PMS5003;64554;43.452;4.934;2024-02-15T02:52:52;42.50;35.25;23.00
69349;PMS5003;64554;43.452;4.934;2024-02-15T02:55:18;37.50;32.75;22.00
69349;PMS5003;64554;43.452;4.934;2024-02-15T02:57:45;42.75;34.25;22.75
69349;PMS5003;64554;43.452;4.934;2024-02-15T03:00:14;37.00;33.00;22.00
69349;PMS5003;64554;43.452;4.934;2024-02-15T03:02:43;39.60;33.60;21.80
69349;PMS5003;64554;43.452;4.934;2024-02-15T03:05:10;40.20;35.00;23.00
69349;PMS5003;64554;43.452;4.934;2024-02-15T03:07:40;39.50;33.50;23.50
69349;PMS5003;64554;43.452;4.934;2024-02-15T03:10:10;37.50;32.00;20.75
69349;PMS5003;64554;43.452;4.934;2024-02-15T03:12:41;38.00;33.00;22.00
69349;PMS5003;64554;43.452;4.934;2024-02-15T03:15:15;47.00;39.00;23.00
69349;PMS5003;64554;43.452;4.934;2024-02-15T03:17:43;33.00;32.00;22.00
69349;PMS5003;64554;43.452;4.934;2024-02-15T03:20:10;36.40;33.00;23.00
69349;PMS5003;64554;43.452;4.934;2024-02-15T03:22:51;39.00;34.20;23.00
69349;PMS5003;64554;43.452;4.934;2024-02-15T03:25:18;39.40;35.40;23.00
69349;PMS5003;64554;43.452;4.934;2024-02-15T03:27:45;30.25;28.50;20.00
69349;PMS5003;64554;43.452;4.934;2024-02-15T03:30:12;41.00;34.40;20.80
69349;PMS5003;64554;43.452;4.934;2024-02-15T03:32:39;34.25;32.00;20.00
69349;PMS5003;64554;43.452;4.934;2024-02-15T03:35:07;34.00;32.00;21.50
69349;PMS5003;64554;43.452;4.934;2024-02-15T03:37:33;34.60;30.60;21.40
69349;PMS5003;64554;43.452;4.934;2024-02-15T03:40:03;36.60;33.00;20.20
69349;PMS5003;64554;43.452;4.934;2024-02-15T03:42:30;37.60;33.00;20.00
69349;PMS5003;64554;43.452;4.934;2024-02-15T03:44:57;34.25;30.00;22.00
69349;PMS5003;64554;43.452;4.934;2024-02-15T03:47:23;35.00;32.00;23.60
69349;PMS5003;64554;43.452;4.934;2024-02-15T03:49:50;33.25;31.00;21.00
69349;PMS5003;64554;43.452;4.934;2024-02-15T03:52:16;42.00;33.50;21.00
69349;PMS5003;64554;43.452;4.934;2024-02-15T03:54:43;42.60;35.40;23.40
69349;PMS5003;64554;43.452;4.934;2024-02-15T03:57:09;34.33;32.00;20.33
69349;PMS5003;64554;43.452;4.934;2024-02-15T03:59:37;40.75;34.25;22.00
69349;PMS5003;64554;43.452;4.934;2024-02-15T04:02:04;40.60;36.00;22.80
69349;PMS5003;64554;43.452;4.934;2024-02-15T04:04:34;43.00;36.00;23.50
69349;PMS5003;64554;43.452;4.934;2024-02-15T04:07:03;46.20;39.20;25.20
69349;PMS5003;64554;43.452;4.934;2024-02-15T04:09:30;37.00;32.00;22.00
69349;PMS5003;64554;43.452;4.934;2024-02-15T04:11:56;39.50;33.25;21.25
69349;PMS5003;64554;43.452;4.934;2024-02-15T04:14:23;31.80;30.80;22.00
69349;PMS5003;64554;43.452;4.934;2024-02-15T04:16:50;35.20;31.20;20.00
69349;PMS5003;64554;43.452;4.934;2024-02-15T04:19:16;36.00;31.50;21.50
69349;PMS5003;64554;43.452;4.934;2024-02-15T04:21:46;28.00;28.00;19.40
69349;PMS5003;64554;43.452;4.934;2024-02-15T04:24:13;32.33;30.00;21.00
69349;PMS5003;64554;43.452;4.934;2024-02-15T04:26:40;40.40;35.00;22.20
69349;PMS5003;64554;43.452;4.934;2024-02-15T04:29:07;29.40;28.20;20.80
69349;PMS5003;64554;43.452;4.934;2024-02-15T04:31:35;41.25;33.75;22.50
69349;PMS5003;64554;43.452;4.934;2024-02-15T04:34:05;37.80;31.00;21.00
69349;PMS5003;64554;43.452;4.934;2024-02-15T04:36:32;34.00;30.00;20.25
69349;PMS5003;64554;43.452;4.934;2024-02-15T04:39:00;35.40;32.80;20.00
69349;PMS5003;64554;43.452;4.934;2024-02-15T04:41:30;29.40;28.40;19.40
69349;PMS5003;64554;43.452;4.934;2024-02-15T04:43:57;30.00;29.00;20.00
69349;PMS5003;64554;43.452;4.934;2024-02-15T04:46:23;33.60;30.80;20.00
69349;PMS5003;64554;43.452;4.934;2024-02-15T04:48:50;29.00;29.00;22.00
69349;PMS5003;64554;43.452;4.934;2024-02-15T04:51:17;31.75;30.00;19.75
69349;PMS5003;64554;43.452;4.934;2024-02-15T04:53:43;33.00;30.00;20.00
69349;PMS5003;64554;43.452;4.934;2024-02-15T04:56:12;35.00;32.25;20.00
69349;PMS5003;64554;43.452;4.934;2024-02-15T04:58:43;39.40;33.00;20.00
69349;PMS5003;64554;43.452;4.934;2024-02-15T05:01:14;32.00;30.00;20.00
69349;PMS5003;64554;43.452;4.934;2024-02-15T05:03:44;29.50;29.00;20.50
69349;PMS5003;64554;43.452;4.934;2024-02-15T05:06:11;35.75;32.00;21.50
69349;PMS5003;64554;43.452;4.934;2024-02-15T05:08:41;35.60;32.60;21.40
69349;PMS5003;64554;43.452;4.934;2024-02-15T05:11:11;37.25;32.00;20.00
69349;PMS5003;64554;43.452;4.934;2024-02-15T05:13:44;42.60;35.00;23.00
69349;PMS5003;64554;43.452;4.934;2024-02-15T05:16:16;40.00;35.00;20.00
69349;PMS5003;64554;43.452;4.934;2024-02-15T05:18:43;23.00;22.50;16.00
69349;PMS5003;64554;43.452;4.934;2024-02-15T05:21:10;27.60;27.60;16.00
69349;PMS5003;64554;43.452;4.934;2024-02-15T05:23:36;27.00;23.80;17.20
69349;PMS5003;64554;43.452;4.934;2024-02-15T05:26:06;26.50;24.50;15.75
69349;PMS5003;64554;43.452;4.934;2024-02-15T05:28:32;24.00;23.75;17.25
69349;PMS5003;64554;43.452;4.934;2024-02-15T05:31:09;27.00;26.80;19.00
69349;PMS5003;64554;43.452;4.934;2024-02-15T05:33:36;23.40;22.00;16.00
69349;PMS5003;64554;43.452;4.934;2024-02-15T05:36:05;23.00;19.60;15.00
69349;PMS5003;64554;43.452;4.934;2024-02-15T05:38:31;23.00;21.60;14.00
69349;PMS5003;64554;43.452;4.934;2024-02-15T05:40:58;25.80;22.00;15.00
69349;PMS5003;64554;43.452;4.934;2024-02-15T05:43:24;27.00;27.00;16.00
69349;PMS5003;64554;43.452;4.934;2024-02-15T05:45:51;24.00;23.00;15.25
69349;PMS5003;64554;43.452;4.934;2024-02-15T05:48:19;24.00;24.00;13.00
69349;PMS5003;64554;43.452;4.934;2024-02-15T05:50:45;28.50;23.50;15.50
69349;PMS5003;64554;43.452;4.934;2024-02-15T05:53:13;22.00;22.00;14.75
69349;PMS5003;64554;43.452;4.934;2024-02-15T05:55:39;23.25;23.25;16.00
69349;PMS5003;64554;43.452;4.934;2024-02-15T05:58:10;23.00;21.00;12.20
69349;PMS5003;64554;43.452;4.934;2024-02-15T06:00:37;22.60;22.20;15.40
69349;PMS5003;64554;43.452;4.934;2024-02-15T06:03:05;21.00;17.00;12.60
69349;PMS5003;64554;43.452;4.934;2024-02-15T06:05:32;14.00;14.00;9.00
69349;PMS5003;64554;43.452;4.934;2024-02-15T06:07:59;17.60;15.60;10.60
69349;PMS5003;64554;43.452;4.934;2024-02-15T06:10:25;15.00;13.20;10.00
69349;PMS5003;64554;43.452;4.934;2024-02-15T06:12:52;20.00;18.00;13.00
69349;PMS5003;64554;43.452;4.934;2024-02-15T06:15:18;21.00;20.00;13.00
69349;PMS5003;64554;43.452;4.934;2024-02-15T06:17:46;15.00;15.00;9.50
69349;PMS5003;64554;43.452;4.934;2024-02-15T06:20:14;17.00;15.20;10.20
69349;PMS5003;64554;43.452;4.934;2024-02-15T06:22:41;19.00;18.25;12.75
69349;PMS5003;64554;43.452;4.934;2024-02-15T06:25:07;19.00;19.00;10.50
69349;PMS5003;64554;43.452;4.934;2024-02-15T06:27:34;18.00;15.00;11.50
69349;PMS5003;64554;43.452;4.934;2024-02-15T06:30:03;20.00;18.00;11.00
69349;PMS5003;64554;43.452;4.934;2024-02-15T06:32:48;24.50;20.00;12.00
69349;PMS5003;64554;43.452;4.934;2024-02-15T06:35:33;20.00;19.75;11.75
69349;PMS5003;64554;43.452;4.934;2024-02-15T06:38:18;21.20;19.80;13.00
69349;PMS5003;64554;43.452;4.934;2024-02-15T06:41:03;17.40;17.40;12.80
69349;PMS5003;64554;43.452;4.934;2024-02-15T06:43:30;26.40;23.60;13.60
69349;PMS5003;64554;43.452;4.934;2024-02-15T06:45:57;17.75;16.75;11.00
69349;PMS5003;64554;43.452;4.934;2024-02-15T06:48:24;22.00;18.00;10.00
69349;PMS5003;64554;43.452;4.934;2024-02-15T06:50:52;18.25;16.25;11.25
69349;PMS5003;64554;43.452;4.934;2024-02-15T06:53:19;20.00;18.00;13.00
69349;PMS5003;64554;43.452;4.934;2024-02-15T06:55:46;17.25;16.50;11.50
69349;PMS5003;64554;43.452;4.934;2024-02-15T06:58:15;29.60;23.80;11.40
69349;PMS5003;64554;43.452;4.934;2024-02-15T07:00:43;16.60;14.00;11.60
69349;PMS5003;64554;43.452;4.934;2024-02-15T07:03:09;17.00;15.80;10.80
69349;PMS5003;64554;43.452;4.934;2024-02-15T07:05:37;16.00;15.00;10.60
69349;PMS5003;64554;43.452;4.934;2024-02-15T07:08:07;23.40;23.40;13.00
69349;PMS5003;64554;43.452;4.934;2024-02-15T07:10:33;20.00;18.00;13.00
69349;PMS5003;64554;43.452;4.934;2024-02-15T07:13:00;21.25;19.50;14.00
69349;PMS5003;64554;43.452;4.934;2024-02-15T07:15:26;17.25;17.25;12.50
69349;PMS5003;64554;43.452;4.934;2024-02-15T07:17:53;20.00;19.40;12.60
69349;PMS5003;64554;43.452;4.934;2024-02-15T07:20:21;24.75;21.25;11.75
69349;PMS5003;64554;43.452;4.934;2024-02-15T07:22:49;23.50;20.75;11.00
69349;PMS5003;64554;43.452;4.934;2024-02-15T07:25:15;20.20;16.20;11.00
69349;PMS5003;64554;43.452;4.934;2024-02-15T07:27:42;14.00;13.80;11.00
69349;PMS5003;64554;43.452;4.934;2024-02-15T07:30:09;17.00;15.40;11.60
69349;PMS5003;64554;43.452;4.934;2024-02-15T07:32:35;13.60;13.60;10.60
69349;PMS5003;64554;43.452;4.934;2024-02-15T07:35:03;17.50;16.00;12.50
69349;PMS5003;64554;43.452;4.934;2024-02-15T07:37:34;12.60;12.60;10.40
69349;PMS5003;64554;43.452;4.934;2024-02-15T07:40:01;14.20;14.20;10.00
69349;PMS5003;64554;43.452;4.934;2024-02-15T07:42:30;15.67;14.67;8.67
69349;PMS5003;64554;43.452;4.934;2024-02-15T07:44:56;17.00;15.00;9.00
69349;PMS5003;64554;43.452;4.934;2024-02-15T07:47:23;12.80;11.80;8.00
69349;PMS5003;64554;43.452;4.934;2024-02-15T07:49:50;10.75;10.00;8.00
69349;PMS5003;64554;43.452;4.934;2024-02-15T07:52:17;9.50;9.50;8.00
69349;PMS5003;64554;43.452;4.934;2024-02-15T07:54:44;10.00;10.00;7.50
69349;PMS5003;64554;43.452;4.934;2024-02-15T07:57:10;12.00;12.00;9.00
69349;PMS5003;64554;43.452;4.934;2024-02-15T07:59:37;10.00;10.00;7.00
69349;PMS5003;64554;43.452;4.934;2024-02-15T08:02:05;11.00;10.00;7.00
69349;PMS5003;64554;43.452;4.934;2024-02-15T08:04:32;17.00;14.00;8.40
69349;PMS5003;64554;43.452;4.934;2024-02-15T08:07:06;11.40;10.60;8.00
69349;PMS5003;64554;43.452;4.934;2024-02-15T08:09:37;13.80;13.80;8.00
69349;PMS5003;64554;43.452;4.934;2024-02-15T08:12:08;8.20;8.20;5.80
69349;PMS5003;64554;43.452;4.934;2024-02-15T08:14:34;9.50;9.25;6.75
69349;PMS5003;64554;43.452;4.934;2024-02-15T08:17:01;8.75;8.75;6.00
69349;PMS5003;64554;43.452;4.934;2024-02-15T08:19:28;10.25;10.25;7.00
69349;PMS5003;64554;43.452;4.934;2024-02-15T08:21:55;10.00;10.00;8.00
69349;PMS5003;64554;43.452;4.934;2024-02-15T08:24:22;10.33;10.33;7.00
69349;PMS5003;64554;43.452;4.934;2024-02-15T08:26:49;11.25;11.25;8.00
69349;PMS5003;64554;43.452;4.934;2024-02-15T08:29:15;12.40;11.00;7.00
69349;PMS5003;64554;43.452;4.934;2024-02-15T08:31:42;10.00;9.40;6.40
69349;PMS5003;64554;43.452;4.934;2024-02-15T08:34:08;9.00;9.00;7.00
69349;PMS5003;64554;43.452;4.934;2024-02-15T08:36:37;11.00;11.00;8.00
69349;PMS5003;64554;43.452;4.934;2024-02-15T08:39:06;8.20;8.20;6.80
69349;PMS5003;64554;43.452;4.934;2024-02-15T08:41:34;11.50;11.50;8.00
69349;PMS5003;64554;43.452;4.934;2024-02-15T08:44:01;10.60;10.00;7.00
69349;PMS5003;64554;43.452;4.934;2024-02-15T08:46:28;13.00;12.50;8.50
69349;PMS5003;64554;43.452;4.934;2024-02-15T08:48:55;11.60;11.60;7.60
69349;PMS5003;64554;43.452;4.934;2024-02-15T08:51:21;11.00;11.00;8.60
69349;PMS5003;64554;43.452;4.934;2024-02-15T08:53:50;9.40;9.40;6.60
69349;PMS5003;64554;43.452;4.934;2024-02-15T08:56:18;8.75;8.75;6.75
69349;PMS5003;64554;43.452;4.934;2024-02-15T08:58:44;12.00;12.00;7.20
69349;PMS5003;64554;43.452;4.934;2024-02-15T09:01:10;12.00;12.00;7.00
69349;PMS5003;64554;43.452;4.934;2024-02-15T09:03:39;8.60;8.60;5.60
69349;PMS5003;64554;43.452;4.934;2024-02-15T09:06:06;15.40;15.20;10.20
69349;PMS5003;64554;43.452;4.934;2024-02-15T09:08:34;13.25;13.25;10.00
69349;PMS5003;64554;43.452;4.934;2024-02-15T09:11:00;15.60;12.40;8.40
69349;PMS5003;64554;43.452;4.934;2024-02-15T09:13:29;13.40;13.40;11.00
69349;PMS5003;64554;43.452;4.934;2024-02-15T09:15:55;16.00;15.00;9.75
69349;PMS5003;64554;43.452;4.934;2024-02-15T09:18:22;14.75;13.00;9.00
69349;PMS5003;64554;43.452;4.934;2024-02-15T09:20:51;17.75;13.25;9.25
69349;PMS5003;64554;43.452;4.934;2024-02-15T09:23:22;15.00;15.00;7.80
69349;PMS5003;64554;43.452;4.934;2024-02-15T09:25:50;13.00;13.00;8.60
69349;PMS5003;64554;43.452;4.934;2024-02-15T09:28:20;12.00;11.00;7.80
69349;PMS5003;64554;43.452;4.934;2024-02-15T09:30:48;10.00;10.00;7.00
69349;PMS5003;64554;43.452;4.934;2024-02-15T09:33:19;8.50;8.50;6.00
69349;PMS5003;64554;43.452;4.934;2024-02-15T09:35:45;8.00;8.00;6.00
69349;PMS5003;64554;43.452;4.934;2024-02-15T09:38:13;9.60;9.00;5.60
69349;PMS5003;64554;43.452;4.934;2024-02-15T09:40:43;9.00;9.00;6.00
69349;PMS5003;64554;43.452;4.934;2024-02-15T09:43:10;8.00;8.00;4.00
69349;PMS5003;64554;43.452;4.934;2024-02-15T09:45:39;6.40;5.40;3.40
69349;PMS5003;64554;43.452;4.934;2024-02-15T09:48:06;8.60;7.60;3.00
69349;PMS5003;64554;43.452;4.934;2024-02-15T09:50:35;8.40;8.00;6.00
69349;PMS5003;64554;43.452;4.934;2024-02-15T09:53:04;8.60;8.00;4.00
69349;PMS5003;64554;43.452;4.934;2024-02-15T09:55:34;9.00;7.00;5.00
69349;PMS5003;64554;43.452;4.934;2024-02-15T09:58:00;8.00;8.00;5.00
69349;PMS5003;64554;43.452;4.934;2024-02-15T10:00:27;7.75;6.75;4.00
69349;PMS5003;64554;43.452;4.934;2024-02-15T10:02:53;10.00;8.00;5.00
69349;PMS5003;64554;43.452;4.934;2024-02-15T10:05:21;5.00;5.00;4.00
69349;PMS5003;64554;43.452;4.934;2024-02-15T10:07:49;6.67;6.00;4.00
69349;PMS5003;64554;43.452;4.934;2024-02-15T10:10:20;6.50;6.50;4.50
69349;PMS5003;64554;43.452;4.934;2024-02-15T10:12:47;9.00;8.00;5.00
69349;PMS5003;64554;43.452;4.934;2024-02-15T10:15:36;7.75;7.75;4.75
69349;PMS5003;64554;43.452;4.934;2024-02-15T10:18:07;9.60;9.60;5.00
69349;PMS5003;64554;43.452;4.934;2024-02-15T10:20:36;8.80;8.20;6.00
69349;PMS5003;64554;43.452;4.934;2024-02-15T10:25:35;7.00;7.00;5.00
69349;PMS5003;64554;43.452;4.934;2024-02-15T10:28:05;8.75;7.00;5.00
69349;PMS5003;64554;43.452;4.934;2024-02-15T10:30:36;11.40;8.00;7.00
69349;PMS5003;64554;43.452;4.934;2024-02-15T10:33:03;11.80;8.80;6.00
69349;PMS5003;64554;43.452;4.934;2024-02-15T10:35:30;8.00;8.00;5.60
69349;PMS5003;64554;43.452;4.934;2024-02-15T10:38:05;8.00;8.00;6.50
69349;PMS5003;64554;43.452;4.934;2024-02-15T10:40:33;8.40;8.00;6.00
69349;PMS5003;64554;43.452;4.934;2024-02-15T10:43:04;9.00;7.00;6.00
69349;PMS5003;64554;43.452;4.934;2024-02-15T10:45:35;9.00;9.00;6.00
69349;PMS5003;64554;43.452;4.934;2024-02-15T10:48:05;8.00;8.00;5.60
69349;PMS5003;64554;43.452;4.934;2024-02-15T10:50:32;9.00;8.00;6.00
69349;PMS5003;64554;43.452;4.934;2024-02-15T10:52:59;8.80;6.80;4.80
69349;PMS5003;64554;43.452;4.934;2024-02-15T10:58:19;9.00;7.60;4.60
69349;PMS5003;64554;43.452;4.934;2024-02-15T11:00:46;9.00;7.00;6.00
69349;PMS5003;64554;43.452;4.934;2024-02-15T11:03:16;11.00;11.00;9.00
69349;PMS5003;64554;43.452;4.934;2024-02-15T11:05:47;11.00;9.00;7.00
69349;PMS5003;64554;43.452;4.934;2024-02-15T11:08:14;12.20;10.60;7.60
69349;PMS5003;64554;43.452;4.934;2024-02-15T11:10:43;10.25;10.00;6.25
69349;PMS5003;64554;43.452;4.934;2024-02-15T11:13:10;9.20;9.20;7.00
69349;PMS5003;64554;43.452;4.934;2024-02-15T11:18:08;9.75;8.00;5.00
69349;PMS5003;64554;43.452;4.934;2024-02-15T11:23:02;7.25;5.75;4.25
69349;PMS5003;64554;43.452;4.934;2024-02-15T11:25:35;12.40;11.80;4.60
69349;PMS5003;64554;43.452;4.934;2024-02-15T11:30:53;13.00;9.00;6.00
69349;PMS5003;64554;43.452;4.934;2024-02-15T11:33:33;9.00;7.00;6.00
69349;PMS5003;64554;43.452;4.934;2024-02-15T11:38:31;8.00;8.00;4.00
69349;PMS5003;64554;43.452;4.934;2024-02-15T11:41:04;8.60;7.20;5.00
69349;PMS5003;64554;43.452;4.934;2024-02-15T11:46:11;11.40;10.00;7.00
69349;PMS5003;64554;43.452;4.934;2024-02-15T11:48:39;11.00;10.00;6.60
69349;PMS5003;64554;43.452;4.934;2024-02-15T11:51:06;13.00;13.00;9.00
69349;PMS5003;64554;43.452;4.934;2024-02-15T11:53:33;16.67;15.67;10.00
69349;PMS5003;64554;43.452;4.934;2024-02-15T11:55:59;20.00;18.20;10.00
69349;PMS5003;64554;43.452;4.934;2024-02-15T11:58:26;15.40;12.40;9.00
69349;PMS5003;64554;43.452;4.934;2024-02-15T12:01:08;10.80;10.80;8.00
69349;PMS5003;64554;43.452;4.934;2024-02-15T12:03:54;7.00;6.00;4.50
69349;PMS5003;64554;43.452;4.934;2024-02-15T12:06:39;7.00;7.00;4.00
69349;PMS5003;64554;43.452;4.934;2024-02-15T12:09:24;6.80;6.80;4.80
69349;PMS5003;64554;43.452;4.934;2024-02-15T12:12:09;8.00;6.40;4.00
69349;PMS5003;64554;43.452;4.934;2024-02-15T12:15:00;5.40;5.40;3.40
69349;PMS5003;64554;43.452;4.934;2024-02-15T12:17:46;5.00;5.00;3.00
69349;PMS5003;64554;43.452;4.934;2024-02-15T12:20:45;7.20;6.20;3.00
69349;PMS5003;64554;43.452;4.934;2024-02-15T12:23:12;6.00;5.00;3.00
69349;PMS5003;64554;43.452;4.934;2024-02-15T12:25:39;6.00;4.50;3.50
69349;PMS5003;64554;43.452;4.934;2024-02-15T12:28:06;7.00;4.50;2.00
69349;PMS5003;64554;43.452;4.934;2024-02-15T12:30:33;8.00;5.00;3.00
69349;PMS5003;64554;43.452;4.934;2024-02-15T12:33:09;5.00;3.60;3.00
69349;PMS5003;64554;43.452;4.934;2024-02-15T12:35:38;9.00;7.00;3.00
69349;PMS5003;64554;43.452;4.934;2024-02-15T12:38:04;5.00;5.00;2.50
69349;PMS5003;64554;43.452;4.934;2024-02-15T12:40:35;6.60;5.60;3.00
69349;PMS5003;64554;43.452;4.934;2024-02-15T12:43:08;5.00;5.00;3.00
69349;PMS5003;64554;43.452;4.934;2024-02-15T12:45:36;6.00;6.00;4.00
69349;PMS5003;64554;43.452;4.934;2024-02-15T12:48:03;5.00;4.00;2.00
69349;PMS5003;64554;43.452;4.934;2024-02-15T12:50:30;5.00;5.00;3.00
69349;PMS5003;64554;43.452;4.934;2024-02-15T12:52:57;6.00;5.00;3.00
69349;PMS5003;64554;43.452;4.934;2024-02-15T12:55:30;3.25;3.25;1.25
69349;PMS5003;64554;43.452;4.934;2024-02-15T12:58:01;7.20;7.20;5.20
69349;PMS5003;64554;43.452;4.934;2024-02-15T13:00:30;5.00;5.00;3.50
69349;PMS5003;64554;43.452;4.934;2024-02-15T13:03:03;6.00;5.00;3.00
69349;PMS5003;64554;43.452;4.934;2024-02-15T13:05:31;7.40;5.00;2.40
69349;PMS5003;64554;43.452;4.934;2024-02-15T13:07:58;5.00;5.00;3.00
69349;PMS5003;64554;43.452;4.934;2024-02-15T13:10:24;4.50;4.50;1.75
69349;PMS5003;64554;43.452;4.934;2024-02-15T13:12:54;5.25;5.25;3.50
69349;PMS5003;64554;43.452;4.934;2024-02-15T13:15:22;9.00;9.00;3.00
69349;PMS5003;64554;43.452;4.934;2024-02-15T13:17:53;6.00;6.00;3.40
69349;PMS5003;64554;43.452;4.934;2024-02-15T13:20:21;10.00;5.00;4.40
69349;PMS5003;64554;43.452;4.934;2024-02-15T13:22:56;6.20;5.00;4.00
69349;PMS5003;64554;43.452;4.934;2024-02-15T13:25:29;4.60;3.40;3.00
69349;PMS5003;64554;43.452;4.934;2024-02-15T13:27:56;9.00;9.00;6.00
69349;PMS5003;64554;43.452;4.934;2024-02-15T13:30:23;7.40;7.00;4.00
69349;PMS5003;64554;43.452;4.934;2024-02-15T13:32:53;5.00;3.60;3.00
69349;PMS5003;64554;43.452;4.934;2024-02-15T13:35:23;4.00;4.00;2.00
69349;PMS5003;64554;43.452;4.934;2024-02-15T13:37:53;6.20;5.20;2.60
69349;PMS5003;64554;43.452;4.934;2024-02-15T13:40:25;3.40;3.40;1.40
69349;PMS5003;64554;43.452;4.934;2024-02-15T13:42:56;6.75;4.25;2.25
69349;PMS5003;64554;43.452;4.934;2024-02-15T13:45:28;6.20;5.00;2.20
69349;PMS5003;64554;43.452;4.934;2024-02-15T13:48:04;4.20;4.20;3.00
69349;PMS5003;64554;43.452;4.934;2024-02-15T13:50:33;3.00;3.00;2.60
69349;PMS5003;64554;43.452;4.934;2024-02-15T13:53:00;9.60;6.60;5.00
69349;PMS5003;64554;43.452;4.934;2024-02-15T13:55:28;6.00;6.00;4.00
69349;PMS5003;64554;43.452;4.934;2024-02-15T13:57:55;6.00;6.00;3.60
69349;PMS5003;64554;43.452;4.934;2024-02-15T14:00:23;4.00;4.00;3.00
69349;PMS5003;64554;43.452;4.934;2024-02-15T14:02:56;6.00;6.00;2.00
69349;PMS5003;64554;43.452;4.934;2024-02-15T14:05:23;6.80;6.80;4.20
69349;PMS5003;64554;43.452;4.934;2024-02-15T14:07:53;5.00;5.00;3.00
69349;PMS5003;64554;43.452;4.934;2024-02-15T14:10:22;5.50;4.50;3.00
69349;PMS5003;64554;43.452;4.934;2024-02-15T14:12:48;6.20;5.00;3.00
69349;PMS5003;64554;43.452;4.934;2024-02-15T14:15:15;5.00;5.00;3.60
69349;PMS5003;64554;43.452;4.934;2024-02-15T14:17:44;5.25;5.00;4.00
69349;PMS5003;64554;43.452;4.934;2024-02-15T14:20:11;7.00;5.00;4.00
69349;PMS5003;64554;43.452;4.934;2024-02-15T14:22:41;3.00;3.00;2.00
69349;PMS5003;64554;43.452;4.934;2024-02-15T14:25:08;4.00;4.00;3.00